Time;durP1;ratioP1;P1;durP2;ratioP2;P2;SDS_P1;SDS_P2;PMS_P1;PMS_P2;Temp;Humidity;BMP_temperature;BMP_pressure;BME280_temperature;BME280_humidity;BME280_pressure;Samples;Min_cycle;Max_cycle;Signal;HPM_P1;HPM_P2
2023/05/13 00:01:28;;;;;;;;;;;12.80;99.90;;;;;;5033435;28;19987;-68
2023/05/13 00:03:54;;;;;;;;;;;12.80;99.90;;;;;;5033585;28;19931;-68
2023/05/13 00:06:23;;;;;;;;;;;12.80;99.90;;;;;;5033332;28;20004;-67
2023/05/13 00:08:50;;;;;;;;;;;12.70;99.90;;;;;;5033478;28;19929;-67
2023/05/13 00:11:16;;;;;;;;;;;12.70;99.90;;;;;;5033469;28;19925;-68
2023/05/13 00:13:43;;;;;;;;;;;12.70;99.90;;;;;;5033525;28;19929;-68
2023/05/13 00:16:10;;;;;;;;;;;12.70;99.90;;;;;;5033309;28;19925;-68
2023/05/13 00:18:37;;;;;;;;;;;12.60;99.90;;;;;;5033236;28;19932;-69
2023/05/13 00:21:04;;;;;;;;;;;12.70;99.90;;;;;;5032200;28;19926;-68
2023/05/13 00:23:32;;;;;;;;;;;12.70;99.90;;;;;;5033421;28;19952;-65
2023/05/13 00:25:59;;;;;;;;;;;12.80;99.90;;;;;;5033233;28;19932;-68
2023/05/13 00:28:26;;;;;;;;;;;12.80;99.90;;;;;;5050224;28;19925;-67
2023/05/13 00:30:53;;;;;;;;;;;12.80;99.90;;;;;;5033367;28;19929;-67
2023/05/13 00:33:19;;;;;;;;;;;12.80;99.90;;;;;;5032959;28;19932;-68
2023/05/13 00:35:46;;;;;;;;;;;12.80;99.90;;;;;;5032849;28;19934;-68
2023/05/13 00:38:13;;;;;;;;;;;12.80;99.90;;;;;;5032961;28;20028;-68
2023/05/13 00:40:42;;;;;;;;;;;12.70;99.90;;;;;;5032676;28;20395;-68
2023/05/13 00:43:08;;;;;;;;;;;12.70;99.90;;;;;;5032801;28;20335;-68
2023/05/13 00:45:36;;;;;;;;;;;12.70;99.90;;;;;;5032813;28;19932;-67
2023/05/13 00:48:05;;;;;;;;;;;12.70;99.90;;;;;;5032406;28;20392;-68
2023/05/13 00:50:33;;;;;;;;;;;12.60;99.90;;;;;;5032450;28;19932;-68
2023/05/13 00:53:00;;;;;;;;;;;12.60;99.90;;;;;;5032657;28;19932;-67
2023/05/13 00:55:26;;;;;;;;;;;12.60;99.90;;;;;;5032507;28;19925;-68
2023/05/13 00:57:55;;;;;;;;;;;12.50;99.90;;;;;;5032272;28;19926;-66
2023/05/13 01:00:21;;;;;;;;;;;12.50;99.90;;;;;;5032247;28;19929;-68
2023/05/13 01:02:50;;;;;;;;;;;12.40;99.90;;;;;;5032490;28;19929;-68
2023/05/13 01:05:21;;;;;;;;;;;12.40;99.90;;;;;;5032126;28;19979;-65
2023/05/13 01:07:53;;;;;;;;;;;12.30;99.90;;;;;;5032305;28;19925;-67
2023/05/13 01:10:23;;;;;;;;;;;12.20;99.90;;;;;;5032153;28;19952;-65
2023/05/13 01:12:53;;;;;;;;;;;12.20;99.90;;;;;;5032392;28;19925;-66
2023/05/13 01:15:22;;;;;;;;;;;12.20;99.90;;;;;;5032251;28;19932;-68
2023/05/13 01:20:38;;;;;;;;;;;12.20;99.90;;;;;;5029385;28;19925;-65
2023/05/13 01:23:06;;;;;;;;;;;12.10;99.90;;;;;;5032394;28;19925;-68
2023/05/13 01:25:33;;;;;;;;;;;12.10;99.90;;;;;;5031868;28;20413;-67
2023/05/13 01:28:00;;;;;;;;;;;12.10;99.90;;;;;;5031981;28;19925;-67
2023/05/13 01:30:27;;;;;;;;;;;12.10;99.90;;;;;;5031964;28;19925;-68
2023/05/13 01:32:55;;;;;;;;;;;12.00;99.90;;;;;;5031554;28;19925;-67
2023/05/13 01:35:22;;;;;;;;;;;12.00;99.90;;;;;;5031819;28;19944;-68
2023/05/13 01:37:50;;;;;;;;;;;12.00;99.90;;;;;;5031995;28;20420;-66
2023/05/13 01:40:19;;;;;;;;;;;12.00;99.90;;;;;;5031632;28;19925;-66
2023/05/13 01:42:46;;;;;;;;;;;12.00;99.90;;;;;;5031864;28;19932;-64
2023/05/13 01:45:14;;;;;;;;;;;11.90;99.90;;;;;;5031269;28;19925;-68
2023/05/13 01:47:41;;;;;;;;;;;11.90;99.90;;;;;;5031911;28;19933;-68
2023/05/13 01:50:08;;;;;;;;;;;11.90;99.90;;;;;;5031701;28;19932;-68
2023/05/13 01:52:35;;;;;;;;;;;11.90;99.90;;;;;;5031781;28;19932;-68
2023/05/13 01:55:02;;;;;;;;;;;11.80;99.90;;;;;;5031787;28;19929;-67
2023/05/13 01:57:31;;;;;;;;;;;11.80;99.90;;;;;;5031558;28;19932;-67
2023/05/13 01:59:59;;;;;;;;;;;11.80;99.90;;;;;;5031481;28;19971;-68
2023/05/13 02:02:25;;;;;;;;;;;11.70;99.90;;;;;;5031130;28;19947;-68
2023/05/13 02:04:52;;;;;;;;;;;11.60;99.90;;;;;;5031604;28;20024;-68
2023/05/13 02:07:20;;;;;;;;;;;11.60;99.90;;;;;;5030924;28;20308;-69
2023/05/13 02:09:47;;;;;;;;;;;11.60;99.90;;;;;;5031036;28;19971;-67
2023/05/13 02:12:14;;;;;;;;;;;11.50;99.90;;;;;;5031269;28;19932;-68
2023/05/13 02:14:42;;;;;;;;;;;11.50;99.90;;;;;;5031208;28;19976;-68
2023/05/13 02:17:09;;;;;;;;;;;11.40;99.90;;;;;;5030762;28;20395;-68
2023/05/13 02:19:36;;;;;;;;;;;11.40;99.90;;;;;;5031453;28;19925;-67
2023/05/13 02:22:03;;;;;;;;;;;11.30;99.90;;;;;;5031015;28;19931;-67
2023/05/13 02:24:31;;;;;;;;;;;11.30;99.90;;;;;;5031042;28;20282;-67
2023/05/13 02:26:58;;;;;;;;;;;11.20;99.90;;;;;;5031104;28;19925;-67
2023/05/13 02:29:25;;;;;;;;;;;11.20;99.90;;;;;;5031243;28;19925;-68
2023/05/13 02:31:54;;;;;;;;;;;11.10;99.90;;;;;;5031219;28;19932;-67
2023/05/13 02:34:21;;;;;;;;;;;11.10;99.90;;;;;;5031123;28;20059;-65
2023/05/13 02:36:48;;;;;;;;;;;11.00;99.90;;;;;;5030831;28;19932;-68
2023/05/13 02:39:15;;;;;;;;;;;11.00;99.90;;;;;;5030937;28;19925;-68
2023/05/13 02:41:43;;;;;;;;;;;10.90;99.90;;;;;;5031009;28;19925;-67
2023/05/13 02:44:10;;;;;;;;;;;10.80;99.90;;;;;;5030574;28;19929;-66
2023/05/13 02:46:38;;;;;;;;;;;10.80;99.90;;;;;;5030458;28;19925;-67
2023/05/13 02:49:06;;;;;;;;;;;10.70;99.90;;;;;;5030911;28;20320;-68
2023/05/13 02:51:33;;;;;;;;;;;10.60;99.90;;;;;;5030935;28;19925;-68
2023/05/13 02:54:00;;;;;;;;;;;10.60;99.90;;;;;;5030865;28;19925;-68
2023/05/13 02:56:29;;;;;;;;;;;10.60;99.90;;;;;;5030655;28;19940;-68
2023/05/13 02:58:56;;;;;;;;;;;10.60;99.90;;;;;;5030915;28;19925;-65
2023/05/13 03:01:25;;;;;;;;;;;10.50;99.90;;;;;;5030711;28;19925;-68
2023/05/13 03:03:52;;;;;;;;;;;10.50;99.90;;;;;;5030688;28;19925;-68
2023/05/13 03:06:20;;;;;;;;;;;10.50;99.90;;;;;;5030238;28;20388;-68
2023/05/13 03:08:47;;;;;;;;;;;10.50;99.90;;;;;;5030350;28;19925;-67
2023/05/13 03:11:14;;;;;;;;;;;10.40;99.90;;;;;;5030359;28;19925;-69
2023/05/13 03:13:41;;;;;;;;;;;10.40;99.90;;;;;;5030775;28;19932;-67
2023/05/13 03:16:07;;;;;;;;;;;10.40;99.90;;;;;;5046960;28;19932;-66
2023/05/13 03:18:35;;;;;;;;;;;10.40;99.90;;;;;;5030271;28;19944;-68
2023/05/13 03:21:02;;;;;;;;;;;10.40;99.90;;;;;;5030677;28;19925;-67
2023/05/13 03:23:30;;;;;;;;;;;10.40;99.90;;;;;;5030254;28;20294;-68
2023/05/13 03:25:58;;;;;;;;;;;10.40;99.90;;;;;;5030385;28;19937;-67
2023/05/13 03:28:25;;;;;;;;;;;10.40;99.90;;;;;;5030309;28;19929;-66
2023/05/13 03:30:52;;;;;;;;;;;10.40;99.90;;;;;;5030217;28;19932;-69
2023/05/13 03:33:19;;;;;;;;;;;10.40;99.90;;;;;;5030349;28;20348;-68
2023/05/13 03:35:47;;;;;;;;;;;10.40;99.90;;;;;;5030238;28;19939;-67
2023/05/13 03:38:15;;;;;;;;;;;10.40;99.90;;;;;;5030142;28;19925;-67
2023/05/13 03:40:47;;;;;;;;;;;10.40;99.90;;;;;;5030496;28;19925;-67
2023/05/13 03:43:14;;;;;;;;;;;10.40;99.90;;;;;;5030226;28;19972;-67
2023/05/13 03:45:47;;;;;;;;;;;10.40;99.90;;;;;;5030375;28;19936;-68
2023/05/13 03:48:16;;;;;;;;;;;10.50;99.90;;;;;;5030403;28;20028;-68
2023/05/13 03:50:43;;;;;;;;;;;10.50;99.90;;;;;;5030411;28;19925;-68
2023/05/13 03:53:10;;;;;;;;;;;10.50;99.90;;;;;;5030246;28;19925;-67
2023/05/13 03:55:37;;;;;;;;;;;10.50;99.90;;;;;;5030283;28;20384;-68
2023/05/13 03:58:12;;;;;;;;;;;10.50;99.90;;;;;;5033506;28;19925;-68
2023/05/13 04:00:39;;;;;;;;;;;10.60;99.90;;;;;;5033479;28;20460;-68
2023/05/13 04:03:06;;;;;;;;;;;10.60;99.90;;;;;;5033554;28;20392;-68
2023/05/13 04:05:33;;;;;;;;;;;10.70;99.90;;;;;;5033632;28;20315;-65
2023/05/13 04:08:00;;;;;;;;;;;10.60;99.90;;;;;;5033354;28;19925;-68
2023/05/13 04:10:27;;;;;;;;;;;10.70;99.90;;;;;;5033513;28;19932;-68
2023/05/13 04:12:53;;;;;;;;;;;10.70;99.90;;;;;;5033635;28;19925;-68
2023/05/13 04:15:23;;;;;;;;;;;10.60;99.90;;;;;;5033165;28;19925;-67
2023/05/13 04:17:49;;;;;;;;;;;10.60;99.90;;;;;;5033179;28;19925;-67
2023/05/13 04:20:16;;;;;;;;;;;10.70;99.90;;;;;;5033470;28;20028;-67
2023/05/13 04:22:43;;;;;;;;;;;10.60;99.90;;;;;;5032897;28;19925;-63
2023/05/13 04:25:10;;;;;;;;;;;10.60;99.90;;;;;;5049062;28;19924;-67
2023/05/13 04:27:39;;;;;;;;;;;10.70;99.90;;;;;;5053091;28;19932;-67
2023/05/13 04:30:12;;;;;;;;;;;10.70;99.90;;;;;;5052927;28;19925;-68
2023/05/13 04:32:42;;;;;;;;;;;10.70;99.90;;;;;;5053150;28;20400;-67
2023/05/13 04:35:10;;;;;;;;;;;10.80;99.90;;;;;;5052617;28;20375;-66
2023/05/13 04:37:37;;;;;;;;;;;10.80;99.90;;;;;;5052389;28;19929;-64
2023/05/13 04:40:07;;;;;;;;;;;10.80;99.90;;;;;;5052712;28;19968;-67
2023/05/13 04:42:34;;;;;;;;;;;10.90;99.90;;;;;;5052334;28;19925;-67
2023/05/13 04:45:02;;;;;;;;;;;11.00;99.90;;;;;;5052690;28;19931;-67
2023/05/13 04:47:29;;;;;;;;;;;11.00;99.90;;;;;;5052541;28;20303;-68
2023/05/13 04:49:57;;;;;;;;;;;11.00;99.90;;;;;;5052499;28;19929;-68
2023/05/13 04:52:24;;;;;;;;;;;11.10;99.90;;;;;;5051635;28;19925;-64
2023/05/13 04:54:51;;;;;;;;;;;11.10;99.90;;;;;;5052410;28;19925;-68
2023/05/13 04:57:18;;;;;;;;;;;11.10;99.90;;;;;;5052832;28;19925;-66
2023/05/13 04:59:46;;;;;;;;;;;11.10;99.90;;;;;;5052482;28;19982;-67
2023/05/13 05:02:14;;;;;;;;;;;11.20;99.90;;;;;;5049047;28;20469;-67
2023/05/13 05:04:40;;;;;;;;;;;11.30;99.90;;;;;;5042096;28;19925;-64
2023/05/13 05:07:14;;;;;;;;;;;11.40;99.90;;;;;;5031608;28;19925;-67
2023/05/13 05:09:41;;;;;;;;;;;11.40;99.90;;;;;;5032703;28;19925;-67
2023/05/13 05:12:08;;;;;;;;;;;11.50;99.90;;;;;;5032508;28;19941;-66
2023/05/13 05:14:38;;;;;;;;;;;11.50;99.90;;;;;;5032325;28;19925;-67
2023/05/13 05:17:06;;;;;;;;;;;11.50;99.90;;;;;;5032004;28;19929;-66
2023/05/13 05:19:33;;;;;;;;;;;11.60;99.90;;;;;;5031951;28;19925;-66
2023/05/13 05:22:00;;;;;;;;;;;11.60;99.90;;;;;;5031798;28;19948;-69
2023/05/13 05:24:28;;;;;;;;;;;11.60;99.90;;;;;;5031650;28;19931;-68
2023/05/13 05:26:55;;;;;;;;;;;11.60;99.90;;;;;;5031895;28;19932;-68
2023/05/13 05:29:22;;;;;;;;;;;11.60;99.90;;;;;;5032192;28;19925;-69
2023/05/13 05:31:49;;;;;;;;;;;11.60;99.90;;;;;;5032053;28;19987;-69
2023/05/13 05:34:16;;;;;;;;;;;11.60;99.90;;;;;;5031436;28;19936;-66
2023/05/13 05:36:43;;;;;;;;;;;11.60;99.90;;;;;;5031475;28;19925;-69
2023/05/13 05:39:13;;;;;;;;;;;11.60;99.90;;;;;;5031872;28;20020;-68
2023/05/13 05:41:41;;;;;;;;;;;11.60;99.90;;;;;;5031971;28;19932;-69
2023/05/13 05:44:08;;;;;;;;;;;11.70;99.90;;;;;;5031611;28;19925;-68
2023/05/13 05:46:35;;;;;;;;;;;11.70;99.90;;;;;;5038592;28;19925;-67
2023/05/13 05:49:02;;;;;;;;;;;11.80;99.90;;;;;;5051398;28;19924;-69
2023/05/13 05:51:31;;;;;;;;;;;11.90;99.90;;;;;;5051860;28;19932;-68
2023/05/13 05:54:01;;;;;;;;;;;12.00;99.90;;;;;;5051591;28;20353;-65
2023/05/13 05:56:28;;;;;;;;;;;12.10;99.90;;;;;;5051148;28;20394;-68
2023/05/13 05:58:56;;;;;;;;;;;12.30;99.90;;;;;;5051338;28;19931;-68
2023/05/13 06:01:23;;;;;;;;;;;12.30;99.90;;;;;;5051458;28;19925;-67
2023/05/13 06:03:50;;;;;;;;;;;12.40;99.90;;;;;;5051220;28;19925;-68
2023/05/13 06:06:18;;;;;;;;;;;12.50;99.90;;;;;;5050960;28;20387;-67
2023/05/13 06:08:44;;;;;;;;;;;12.50;99.90;;;;;;5051109;28;19924;-68
2023/05/13 06:11:13;;;;;;;;;;;12.60;99.90;;;;;;5051291;28;20403;-68
2023/05/13 06:13:39;;;;;;;;;;;12.70;99.90;;;;;;5051203;28;20016;-68
2023/05/13 06:16:08;;;;;;;;;;;12.70;99.90;;;;;;5047192;28;19929;-68
2023/05/13 06:18:38;;;;;;;;;;;12.80;99.90;;;;;;5050177;28;20395;-65
2023/05/13 06:21:05;;;;;;;;;;;12.90;99.90;;;;;;5051195;28;19929;-66
2023/05/13 06:23:31;;;;;;;;;;;13.00;99.90;;;;;;5051142;28;19932;-69
2023/05/13 06:25:58;;;;;;;;;;;13.00;99.90;;;;;;5050949;28;19925;-68
2023/05/13 06:28:25;;;;;;;;;;;13.00;99.90;;;;;;5050746;28;19932;-69
2023/05/13 06:30:53;;;;;;;;;;;13.10;99.90;;;;;;5051162;28;19925;-68
2023/05/13 06:33:21;;;;;;;;;;;13.20;99.90;;;;;;5050795;28;19928;-69
2023/05/13 06:35:48;;;;;;;;;;;13.40;99.90;;;;;;5050537;28;19925;-67
2023/05/13 06:38:17;;;;;;;;;;;13.50;99.90;;;;;;5050584;28;19929;-69
2023/05/13 06:40:45;;;;;;;;;;;13.70;99.90;;;;;;5050528;28;19951;-69
2023/05/13 06:43:13;;;;;;;;;;;13.80;99.90;;;;;;5050391;28;19924;-69
2023/05/13 06:45:45;;;;;;;;;;;14.00;99.90;;;;;;5050676;28;19925;-69
2023/05/13 06:48:13;;;;;;;;;;;14.10;99.90;;;;;;5050759;28;20380;-66
2023/05/13 06:50:41;;;;;;;;;;;14.20;99.90;;;;;;5050245;28;19925;-69
2023/05/13 06:53:10;;;;;;;;;;;14.20;99.90;;;;;;5050552;28;19929;-68
2023/05/13 06:55:40;;;;;;;;;;;14.30;99.90;;;;;;5050537;28;20447;-68
2023/05/13 06:58:07;;;;;;;;;;;14.30;99.90;;;;;;5050248;28;20399;-69
2023/05/13 07:00:36;;;;;;;;;;;14.30;99.90;;;;;;5050261;28;19932;-67
2023/05/13 07:03:03;;;;;;;;;;;14.40;99.90;;;;;;5050102;28;19925;-69
2023/05/13 07:05:30;;;;;;;;;;;14.50;99.90;;;;;;5050737;28;20039;-69
2023/05/13 07:07:58;;;;;;;;;;;14.60;99.90;;;;;;5050419;28;19936;-68
2023/05/13 07:10:25;;;;;;;;;;;14.80;99.90;;;;;;5050260;28;19925;-68
2023/05/13 07:12:52;;;;;;;;;;;14.90;99.90;;;;;;5051526;28;19925;-68
2023/05/13 07:15:19;;;;;;;;;;;15.10;99.90;;;;;;5055007;28;20388;-68
2023/05/13 07:17:46;;;;;;;;;;;15.20;99.90;;;;;;5050116;28;19929;-68
2023/05/13 07:20:12;;;;;;;;;;;15.30;99.90;;;;;;5050621;28;19925;-68
2023/05/13 07:22:39;;;;;;;;;;;15.30;99.90;;;;;;5050387;28;19924;-66
2023/05/13 07:25:08;;;;;;;;;;;15.50;99.90;;;;;;5050296;28;19929;-68
2023/05/13 07:27:35;;;;;;;;;;;15.60;99.90;;;;;;5050124;28;19932;-68
2023/05/13 07:30:01;;;;;;;;;;;15.70;99.90;;;;;;5049680;28;19925;-68
2023/05/13 07:32:30;;;;;;;;;;;15.80;99.90;;;;;;5052628;28;19929;-69
2023/05/13 07:34:56;;;;;;;;;;;15.90;99.90;;;;;;5053909;28;19925;-68
2023/05/13 07:37:23;;;;;;;;;;;16.00;99.90;;;;;;5053934;28;19925;-69
2023/05/13 07:39:50;;;;;;;;;;;16.10;99.90;;;;;;5053876;28;19924;-68
2023/05/13 07:42:18;;;;;;;;;;;16.10;99.90;;;;;;5054120;28;20035;-68
2023/05/13 07:44:45;;;;;;;;;;;16.10;99.90;;;;;;5053945;28;19975;-68
2023/05/13 07:47:12;;;;;;;;;;;16.20;99.90;;;;;;5053222;28;19925;-67
2023/05/13 07:49:39;;;;;;;;;;;16.20;99.90;;;;;;5053514;28;20362;-68
2023/05/13 07:52:06;;;;;;;;;;;16.20;99.90;;;;;;5053793;28;19931;-68
2023/05/13 07:54:33;;;;;;;;;;;16.30;99.90;;;;;;5053423;28;20019;-68
2023/05/13 07:57:00;;;;;;;;;;;16.30;99.90;;;;;;5053466;28;19925;-68
2023/05/13 07:59:28;;;;;;;;;;;16.40;99.90;;;;;;5053269;28;19929;-68
2023/05/13 08:01:55;;;;;;;;;;;16.40;99.90;;;;;;5053323;28;19925;-68
2023/05/13 08:04:22;;;;;;;;;;;16.40;99.90;;;;;;5053241;28;19929;-66
2023/05/13 08:06:48;;;;;;;;;;;16.40;99.90;;;;;;5052982;28;19933;-69
2023/05/13 08:09:15;;;;;;;;;;;16.50;99.90;;;;;;5053172;28;19931;-66
2023/05/13 08:11:42;;;;;;;;;;;16.50;99.90;;;;;;5053516;28;19931;-68
2023/05/13 08:14:09;;;;;;;;;;;16.50;99.90;;;;;;5053488;28;19929;-68
2023/05/13 08:16:37;;;;;;;;;;;16.50;99.90;;;;;;5052897;28;19925;-68
2023/05/13 08:19:04;;;;;;;;;;;16.60;99.90;;;;;;5052731;28;19932;-68
2023/05/13 08:21:31;;;;;;;;;;;16.70;99.90;;;;;;5052964;28;19968;-67
2023/05/13 08:23:58;;;;;;;;;;;16.80;99.90;;;;;;5052929;28;19928;-67
2023/05/13 08:26:25;;;;;;;;;;;17.00;99.90;;;;;;5052938;28;19925;-68
2023/05/13 08:28:52;;;;;;;;;;;17.00;99.90;;;;;;5052825;28;19968;-66
2023/05/13 08:31:19;;;;;;;;;;;17.00;99.90;;;;;;5052990;28;19929;-68
2023/05/13 08:33:47;;;;;;;;;;;17.20;99.90;;;;;;5052946;28;19925;-68
2023/05/13 08:36:14;;;;;;;;;;;17.20;99.90;;;;;;5052812;28;19932;-69
2023/05/13 08:38:42;;;;;;;;;;;17.20;99.90;;;;;;5052452;28;19924;-68
2023/05/13 08:41:09;;;;;;;;;;;17.20;99.90;;;;;;5052640;28;19928;-68
2023/05/13 08:43:38;;;;;;;;;;;17.30;99.90;;;;;;5052005;28;19924;-68
2023/05/13 08:46:06;;;;;;;;;;;17.40;99.90;;;;;;5052221;28;19925;-69
2023/05/13 08:48:33;;;;;;;;;;;17.50;99.90;;;;;;5052401;28;19925;-68
2023/05/13 08:51:02;;;;;;;;;;;17.70;99.90;;;;;;5052271;28;19932;-68
2023/05/13 08:53:30;;;;;;;;;;;17.80;99.90;;;;;;5052526;28;20397;-69
2023/05/13 08:55:57;;;;;;;;;;;17.90;99.90;;;;;;5052419;28;19933;-68
2023/05/13 08:58:24;;;;;;;;;;;18.00;99.90;;;;;;5052407;28;19929;-68
2023/05/13 09:00:52;;;;;;;;;;;18.10;99.90;;;;;;5052787;28;19924;-69
2023/05/13 09:03:20;;;;;;;;;;;18.40;99.90;;;;;;5052287;28;19975;-69
2023/05/13 09:05:47;;;;;;;;;;;18.50;99.90;;;;;;5051948;28;19924;-68
2023/05/13 09:08:15;;;;;;;;;;;18.70;99.90;;;;;;5051963;28;19940;-69
2023/05/13 09:10:42;;;;;;;;;;;18.90;99.90;;;;;;5051930;28;19948;-70
2023/05/13 09:13:11;;;;;;;;;;;19.00;99.90;;;;;;5051985;28;19940;-69
2023/05/13 09:15:40;;;;;;;;;;;19.10;99.90;;;;;;5051847;28;19932;-69
2023/05/13 09:18:07;;;;;;;;;;;19.20;99.90;;;;;;5052016;28;19925;-70
2023/05/13 09:20:35;;;;;;;;;;;19.30;99.90;;;;;;5051954;28;19924;-70
2023/05/13 09:23:03;;;;;;;;;;;19.20;99.90;;;;;;5052154;28;19924;-68
2023/05/13 09:25:31;;;;;;;;;;;19.30;99.90;;;;;;5051947;28;19933;-68
2023/05/13 09:27:59;;;;;;;;;;;19.40;99.90;;;;;;5052038;28;19933;-68
2023/05/13 09:30:26;;;;;;;;;;;19.50;99.90;;;;;;5051760;28;19933;-68
2023/05/13 09:33:06;;;;;;;;;;;19.60;99.90;;;;;;5051912;28;19974;-68
2023/05/13 09:35:34;;;;;;;;;;;19.60;99.90;;;;;;5051618;28;19970;-68
2023/05/13 09:38:01;;;;;;;;;;;19.50;99.90;;;;;;5051922;28;19928;-69
2023/05/13 09:40:28;;;;;;;;;;;19.60;99.90;;;;;;5051648;28;19925;-66
2023/05/13 09:42:58;;;;;;;;;;;19.90;99.90;;;;;;5051795;28;19932;-69
2023/05/13 09:45:26;;;;;;;;;;;20.10;99.90;;;;;;5051489;28;20446;-69
2023/05/13 09:47:52;;;;;;;;;;;20.20;99.90;;;;;;5051584;28;19929;-69
2023/05/13 09:50:19;;;;;;;;;;;20.50;99.90;;;;;;5051289;28;19959;-69
2023/05/13 09:52:46;;;;;;;;;;;20.70;99.90;;;;;;5051364;28;19947;-69
2023/05/13 09:55:13;;;;;;;;;;;20.80;99.90;;;;;;5050225;28;19925;-69
2023/05/13 09:57:41;;;;;;;;;;;21.00;99.90;;;;;;5051194;28;19932;-69
2023/05/13 10:00:10;;;;;;;;;;;21.00;99.90;;;;;;5051387;28;19924;-68
2023/05/13 10:02:38;;;;;;;;;;;21.00;99.90;;;;;;5052618;28;20035;-69
2023/05/13 10:05:05;;;;;;;;;;;20.90;99.90;;;;;;5051094;28;19940;-68
2023/05/13 10:07:33;;;;;;;;;;;20.60;99.90;;;;;;5051065;28;19924;-67
2023/05/13 10:10:01;;;;;;;;;;;20.70;99.90;;;;;;5050309;28;19928;-68
2023/05/13 10:12:28;;;;;;;;;;;20.90;99.90;;;;;;5050831;28;19925;-68
2023/05/13 10:14:55;;;;;;;;;;;21.30;99.90;;;;;;5050888;28;19924;-69
2023/05/13 10:17:24;;;;;;;;;;;21.70;99.90;;;;;;5051369;28;19925;-68
2023/05/13 10:19:52;;;;;;;;;;;21.70;99.90;;;;;;5050827;28;19925;-69
2023/05/13 10:22:21;;;;;;;;;;;21.80;99.90;;;;;;5050711;28;19974;-69
2023/05/13 10:24:49;;;;;;;;;;;21.80;99.90;;;;;;5050900;28;19925;-69
2023/05/13 10:27:15;;;;;;;;;;;21.80;99.90;;;;;;5050900;28;19925;-69
2023/05/13 10:29:43;;;;;;;;;;;21.90;99.90;;;;;;5050881;28;19940;-70
2023/05/13 10:32:10;;;;;;;;;;;22.00;99.90;;;;;;5050983;28;19925;-69
2023/05/13 10:34:40;;;;;;;;;;;22.00;99.90;;;;;;5050934;28;19929;-69
2023/05/13 10:37:17;;;;;;;;;;;21.90;99.90;;;;;;5050431;28;19952;-69
2023/05/13 10:40:06;;;;;;;;;;;22.00;99.90;;;;;;5051012;28;20351;-69
2023/05/13 10:42:39;;;;;;;;;;;22.20;99.90;;;;;;5050884;28;19929;-69
2023/05/13 10:45:06;;;;;;;;;;;22.50;99.90;;;;;;5050174;28;19925;-69
2023/05/13 10:47:33;;;;;;;;;;;22.30;99.90;;;;;;5050374;28;20354;-69
2023/05/13 10:50:04;;;;;;;;;;;22.40;99.90;;;;;;5051243;28;19925;-68
2023/05/13 10:52:42;;;;;;;;;;;22.30;99.90;;;;;;5051404;28;19964;-66
2023/05/13 10:55:14;;;;;;;;;;;22.30;99.90;;;;;;5051013;28;19963;-68
2023/05/13 10:57:41;;;;;;;;;;;22.20;99.90;;;;;;5050690;28;19936;-70
2023/05/13 11:00:15;;;;;;;;;;;22.20;99.90;;;;;;5050788;28;20339;-69
2023/05/13 11:02:42;;;;;;;;;;;22.40;99.90;;;;;;5050655;28;19952;-69
2023/05/13 11:05:18;;;;;;;;;;;22.60;99.90;;;;;;5051316;28;19929;-69
2023/05/13 11:07:54;;;;;;;;;;;22.70;99.90;;;;;;5054778;28;19925;-70
2023/05/13 11:10:25;;;;;;;;;;;22.80;99.90;;;;;;5054579;28;19928;-65
2023/05/13 11:13:06;;;;;;;;;;;23.10;99.90;;;;;;5048748;28;19947;-69
2023/05/13 11:15:43;;;;;;;;;;;23.20;99.90;;;;;;5053837;28;19925;-69
2023/05/13 11:18:11;;;;;;;;;;;23.30;99.90;;;;;;5055017;28;19979;-70
2023/05/13 11:20:39;;;;;;;;;;;23.50;99.90;;;;;;5050749;28;19925;-69
2023/05/13 11:23:07;;;;;;;;;;;23.60;99.90;;;;;;5048615;28;19967;-70
2023/05/13 11:25:34;;;;;;;;;;;23.80;99.90;;;;;;5049669;28;20031;-70
2023/05/13 11:28:01;;;;;;;;;;;24.00;99.90;;;;;;5052464;28;19935;-69
2023/05/13 11:30:28;;;;;;;;;;;24.30;99.90;;;;;;5054052;28;19993;-69
2023/05/13 11:32:55;;;;;;;;;;;24.70;99.90;;;;;;5054044;28;19932;-70
2023/05/13 11:35:23;;;;;;;;;;;25.80;99.90;;;;;;5053740;28;20368;-70
2023/05/13 11:37:51;;;;;;;;;;;26.90;99.90;;;;;;5053937;28;19932;-71
2023/05/13 11:40:22;;;;;;;;;;;27.90;99.90;;;;;;5048499;28;19925;-70
2023/05/13 11:42:49;;;;;;;;;;;28.60;99.90;;;;;;5050808;28;19925;-70
2023/05/13 11:45:16;;;;;;;;;;;;;;;;;;5053598;28;19925;-70
2023/05/13 11:47:43;;;;;;;;;;;29.10;99.90;;;;;;5053352;28;19971;-70
2023/05/13 11:50:17;;;;;;;;;;;30.30;99.90;;;;;;5043836;28;19940;-70
2023/05/13 11:52:44;;;;;;;;;;;30.70;99.90;;;;;;5065570;28;19928;-70
2023/05/13 11:55:12;;;;;;;;;;;31.20;99.90;;;;;;5053395;28;19932;-69
2023/05/13 11:57:40;;;;;;;;;;;31.60;99.90;;;;;;5053140;28;19948;-70
2023/05/13 12:00:09;;;;;;;;;;;31.70;99.90;;;;;;5053501;28;19932;-70
2023/05/13 12:02:38;;;;;;;;;;;31.90;99.90;;;;;;5051881;28;19924;-67
2023/05/13 12:05:06;;;;;;;;;;;32.10;99.90;;;;;;5053030;28;19925;-67
2023/05/13 12:07:33;;;;;;;;;;;31.10;99.90;;;;;;5053271;28;19925;-70
2023/05/13 12:10:01;;;;;;;;;;;31.00;99.90;;;;;;5053076;28;19925;-71
2023/05/13 12:12:29;;;;;;;;;;;31.00;99.90;;;;;;5053097;28;19940;-70
2023/05/13 12:14:58;;;;;;;;;;;31.20;99.90;;;;;;5052944;28;19928;-69
2023/05/13 12:17:25;;;;;;;;;;;31.90;99.90;;;;;;5052207;28;20285;-70
2023/05/13 12:20:05;;;;;;;;;;;31.80;99.90;;;;;;5053427;28;19940;-70
2023/05/13 12:22:32;;;;;;;;;;;31.80;99.90;;;;;;5053203;28;19924;-71
2023/05/13 12:25:01;;;;;;;;;;;31.40;99.90;;;;;;5052993;28;19928;-70
2023/05/13 12:27:29;;;;;;;;;;;31.40;99.90;;;;;;5053173;28;20299;-66
2023/05/13 12:29:56;;;;;;;;;;;32.20;99.90;;;;;;5051148;23;19925;-71
2023/05/13 12:32:24;;;;;;;;;;;32.00;99.90;;;;;;5033314;28;19972;-70
2023/05/13 12:34:51;;;;;;;;;;;31.00;99.90;;;;;;5032345;28;19968;-70
2023/05/13 12:37:17;;;;;;;;;;;28.50;99.90;;;;;;5031814;28;20371;-70
2023/05/13 12:39:44;;;;;;;;;;;27.10;99.90;;;;;;5032201;28;19925;-70
2023/05/13 12:42:14;;;;;;;;;;;26.10;99.90;;;;;;5032370;28;19959;-70
2023/05/13 12:44:43;;;;;;;;;;;24.30;99.90;;;;;;5032968;28;19925;-69
2023/05/13 12:47:11;;;;;;;;;;;23.00;99.90;;;;;;5032741;28;19932;-70
2023/05/13 12:49:51;;;;;;;;;;;22.20;99.90;;;;;;5032829;28;19932;-70
2023/05/13 12:52:17;;;;;;;;;;;21.60;99.90;;;;;;5032721;28;19933;-69
2023/05/13 12:54:44;;;;;;;;;;;21.20;99.90;;;;;;5032477;28;20392;-70
2023/05/13 12:57:11;;;;;;;;;;;21.00;99.90;;;;;;5032455;28;20388;-69
2023/05/13 12:59:38;;;;;;;;;;;20.60;99.90;;;;;;5032415;28;19925;-70
2023/05/13 13:02:06;;;;;;;;;;;20.00;99.90;;;;;;5032657;28;19933;-70
2023/05/13 13:04:33;;;;;;;;;;;19.80;99.90;;;;;;5032342;28;19936;-70
2023/05/13 13:07:00;;;;;;;;;;;19.70;99.90;;;;;;5032695;28;19925;-69
2023/05/13 13:09:27;;;;;;;;;;;19.80;99.90;;;;;;5032547;28;19933;-70
2023/05/13 13:11:53;;;;;;;;;;;20.40;99.90;;;;;;5032219;28;19983;-70
2023/05/13 13:14:22;;;;;;;;;;;22.00;99.90;;;;;;5032171;28;20447;-70
2023/05/13 13:16:49;;;;;;;;;;;23.20;99.90;;;;;;5032422;28;19929;-70
2023/05/13 13:19:17;;;;;;;;;;;23.20;99.90;;;;;;5032235;28;20345;-69
2023/05/13 13:21:44;;;;;;;;;;;23.50;99.90;;;;;;5032480;28;19925;-69
2023/05/13 13:24:10;;;;;;;;;;;24.10;99.90;;;;;;5032576;28;19929;-70
2023/05/13 13:26:37;;;;;;;;;;;23.90;99.90;;;;;;5031726;28;20300;-70
2023/05/13 13:29:04;;;;;;;;;;;24.30;99.90;;;;;;5031548;28;19925;-71
2023/05/13 13:31:31;;;;;;;;;;;25.70;99.90;;;;;;5032183;28;19925;-68
2023/05/13 13:34:03;;;;;;;;;;;25.40;99.90;;;;;;5031281;28;20468;-70
2023/05/13 13:36:31;;;;;;;;;;;25.40;99.90;;;;;;5031549;28;19931;-70
2023/05/13 13:38:58;;;;;;;;;;;25.50;99.90;;;;;;5031971;28;19988;-71
2023/05/13 13:41:25;;;;;;;;;;;25.90;99.90;;;;;;5031716;28;19924;-70
2023/05/13 13:43:51;;;;;;;;;;;26.50;99.90;;;;;;5031995;28;19929;-71
2023/05/13 13:46:18;;;;;;;;;;;25.70;99.90;;;;;;5031711;28;19936;-70
2023/05/13 13:48:45;;;;;;;;;;;25.90;99.90;;;;;;5031264;28;19925;-69
2023/05/13 13:51:12;;;;;;;;;;;26.50;99.90;;;;;;5031695;28;19925;-71
2023/05/13 13:53:40;;;;;;;;;;;27.30;99.90;;;;;;5031464;28;19964;-70
2023/05/13 13:56:07;;;;;;;;;;;27.50;99.90;;;;;;5031580;28;19925;-70
2023/05/13 13:58:34;;;;;;;;;;;27.50;99.90;;;;;;5031174;28;19928;-71
2023/05/13 14:01:01;;;;;;;;;;;28.20;99.90;;;;;;5023990;28;19926;-70
2023/05/13 14:03:27;;;;;;;;;;;28.70;99.90;;;;;;5022046;28;19926;-71
2023/05/13 14:05:54;;;;;;;;;;;29.40;99.90;;;;;;5011941;28;20405;-70
2023/05/13 14:08:21;;;;;;;;;;;29.90;99.90;;;;;;5026951;28;19925;-70
2023/05/13 14:10:50;;;;;;;;;;;30.50;99.90;;;;;;5014552;28;19925;-71
2023/05/13 14:13:16;;;;;;;;;;;30.90;99.90;;;;;;5027620;28;19925;-71
2023/05/13 14:15:43;;;;;;;;;;;31.00;99.90;;;;;;5012847;28;19925;-71
2023/05/13 14:18:10;;;;;;;;;;;31.30;99.90;;;;;;5026639;28;19925;-70
2023/05/13 14:20:38;;;;;;;;;;;32.00;99.90;;;;;;5019290;28;19929;-71
2023/05/13 14:23:04;;;;;;;;;;;31.80;99.90;;;;;;5012954;28;19926;-71
2023/05/13 14:25:31;;;;;;;;;;;31.80;99.90;;;;;;5023799;28;19932;-71